sensor_id;sensor_type;location;lat;lon;timestamp;temperature;humidity
47521;DHT22;32291;52.010;4.446;2024-01-11T00:00:09;-4.40;1.00
47521;DHT22;32291;52.010;4.446;2024-01-11T00:01:11;-4.40;1.00
47521;DHT22;32291;52.010;4.446;2024-01-11T00:02:14;-4.40;1.00
47521;DHT22;32291;52.010;4.446;2024-01-11T00:03:16;-4.40;1.00
47521;DHT22;32291;52.010;4.446;2024-01-11T00:04:18;-4.40;1.00
47521;DHT22;32291;52.010;4.446;2024-01-11T00:05:21;-4.30;1.00
47521;DHT22;32291;52.010;4.446;2024-01-11T00:06:23;-4.30;1.00
47521;DHT22;32291;52.010;4.446;2024-01-11T00:07:25;-4.30;1.00
47521;DHT22;32291;52.010;4.446;2024-01-11T00:08:32;-4.30;1.00
47521;DHT22;32291;52.010;4.446;2024-01-11T00:09:40;-4.30;1.00
47521;DHT22;32291;52.010;4.446;2024-01-11T00:10:48;-4.20;1.00
47521;DHT22;32291;52.010;4.446;2024-01-11T00:11:55;-4.30;1.00
47521;DHT22;32291;52.010;4.446;2024-01-11T00:13:02;-4.20;1.00
47521;DHT22;32291;52.010;4.446;2024-01-11T00:14:10;-4.20;1.00
47521;DHT22;32291;52.010;4.446;2024-01-11T00:15:12;-4.20;1.00
47521;DHT22;32291;52.010;4.446;2024-01-11T00:16:19;-4.10;1.00
47521;DHT22;32291;52.010;4.446;2024-01-11T00:17:22;-4.10;1.00
47521;DHT22;32291;52.010;4.446;2024-01-11T00:18:28;-4.20;1.00
47521;DHT22;32291;52.010;4.446;2024-01-11T00:19:31;-4.20;1.00
47521;DHT22;32291;52.010;4.446;2024-01-11T00:20:38;-4.20;1.00
47521;DHT22;32291;52.010;4.446;2024-01-11T00:21:40;-4.20;1.00
47521;DHT22;32291;52.010;4.446;2024-01-11T00:22:47;-4.30;1.00
47521;DHT22;32291;52.010;4.446;2024-01-11T00:23:50;-4.30;1.00
47521;DHT22;32291;52.010;4.446;2024-01-11T00:24:52;-4.30;1.00
47521;DHT22;32291;52.010;4.446;2024-01-11T00:25:59;-4.30;1.00
47521;DHT22;32291;52.010;4.446;2024-01-11T00:27:06;-4.30;1.00
47521;DHT22;32291;52.010;4.446;2024-01-11T00:28:15;-4.20;1.00
47521;DHT22;32291;52.010;4.446;2024-01-11T00:29:17;-4.40;1.00
47521;DHT22;32291;52.010;4.446;2024-01-11T00:30:24;-4.40;1.00
47521;DHT22;32291;52.010;4.446;2024-01-11T00:31:31;-4.30;1.00
47521;DHT22;32291;52.010;4.446;2024-01-11T00:32:37;-4.30;1.00
47521;DHT22;32291;52.010;4.446;2024-01-11T00:33:44;-4.30;1.00
47521;DHT22;32291;52.010;4.446;2024-01-11T00:34:52;-4.40;1.00
47521;DHT22;32291;52.010;4.446;2024-01-11T00:35:54;-4.40;1.00
47521;DHT22;32291;52.010;4.446;2024-01-11T00:37:04;-4.40;1.00
47521;DHT22;32291;52.010;4.446;2024-01-11T00:38:11;-4.40;1.00
47521;DHT22;32291;52.010;4.446;2024-01-11T00:39:18;-4.40;1.00
47521;DHT22;32291;52.010;4.446;2024-01-11T00:40:25;-4.40;1.00
47521;DHT22;32291;52.010;4.446;2024-01-11T00:41:32;-4.40;1.00
47521;DHT22;32291;52.010;4.446;2024-01-11T00:42:39;-4.40;1.00
47521;DHT22;32291;52.010;4.446;2024-01-11T00:43:46;-4.40;1.00
47521;DHT22;32291;52.010;4.446;2024-01-11T00:44:53;-4.40;1.00
47521;DHT22;32291;52.010;4.446;2024-01-11T00:45:59;-4.40;1.00
47521;DHT22;32291;52.010;4.446;2024-01-11T00:47:07;-4.40;1.00
47521;DHT22;32291;52.010;4.446;2024-01-11T00:48:14;-4.40;1.00
47521;DHT22;32291;52.010;4.446;2024-01-11T00:49:21;-4.50;1.00
47521;DHT22;32291;52.010;4.446;2024-01-11T00:50:27;-4.40;1.00
47521;DHT22;32291;52.010;4.446;2024-01-11T00:51:34;-4.40;1.00
47521;DHT22;32291;52.010;4.446;2024-01-11T00:52:44;-4.40;1.00
47521;DHT22;32291;52.010;4.446;2024-01-11T00:53:50;-4.40;1.00
47521;DHT22;32291;52.010;4.446;2024-01-11T00:54:57;-4.40;1.00
47521;DHT22;32291;52.010;4.446;2024-01-11T00:56:04;-4.40;1.00
47521;DHT22;32291;52.010;4.446;2024-01-11T00:57:11;-4.40;1.00
47521;DHT22;32291;52.010;4.446;2024-01-11T00:58:18;-4.40;1.00
47521;DHT22;32291;52.010;4.446;2024-01-11T00:59:20;-4.50;1.00
47521;DHT22;32291;52.010;4.446;2024-01-11T01:00:28;-4.50;1.00
47521;DHT22;32291;52.010;4.446;2024-01-11T01:01:30;-4.50;1.00
47521;DHT22;32291;52.010;4.446;2024-01-11T01:02:36;-4.40;1.00
47521;DHT22;32291;52.010;4.446;2024-01-11T01:03:43;-4.40;1.00
47521;DHT22;32291;52.010;4.446;2024-01-11T01:04:50;-4.50;1.00
47521;DHT22;32291;52.010;4.446;2024-01-11T01:05:52;-4.40;1.00
47521;DHT22;32291;52.010;4.446;2024-01-11T01:06:59;-4.50;1.00
47521;DHT22;32291;52.010;4.446;2024-01-11T01:08:01;-4.50;1.00
47521;DHT22;32291;52.010;4.446;2024-01-11T01:09:08;-4.50;1.00
47521;DHT22;32291;52.010;4.446;2024-01-11T01:10:16;-4.50;3.50
47521;DHT22;32291;52.010;4.446;2024-01-11T01:11:22;-4.50;1.80
47521;DHT22;32291;52.010;4.446;2024-01-11T01:12:29;-4.40;2.30
47521;DHT22;32291;52.010;4.446;2024-01-11T01:13:31;-4.50;1.80
47521;DHT22;32291;52.010;4.446;2024-01-11T01:14:38;-4.40;1.20
47521;DHT22;32291;52.010;4.446;2024-01-11T01:15:45;-4.50;1.00
47521;DHT22;32291;52.010;4.446;2024-01-11T01:16:52;-4.50;1.40
47521;DHT22;32291;52.010;4.446;2024-01-11T01:17:59;-4.50;1.00
47521;DHT22;32291;52.010;4.446;2024-01-11T01:19:06;-4.50;2.10
47521;DHT22;32291;52.010;4.446;2024-01-11T01:20:13;-4.50;2.70
47521;DHT22;32291;52.010;4.446;2024-01-11T01:21:20;-4.50;2.50
47521;DHT22;32291;52.010;4.446;2024-01-11T01:22:27;-4.50;4.90
47521;DHT22;32291;52.010;4.446;2024-01-11T01:23:29;-4.50;7.80
47521;DHT22;32291;52.010;4.446;2024-01-11T01:24:36;-4.40;9.60
47521;DHT22;32291;52.010;4.446;2024-01-11T01:25:43;-4.50;9.50
47521;DHT22;32291;52.010;4.446;2024-01-11T01:26:50;-4.50;10.40
47521;DHT22;32291;52.010;4.446;2024-01-11T01:27:57;-4.40;8.80
47521;DHT22;32291;52.010;4.446;2024-01-11T01:29:05;-4.40;9.80
47521;DHT22;32291;52.010;4.446;2024-01-11T01:30:12;-4.40;10.30
47521;DHT22;32291;52.010;4.446;2024-01-11T01:31:19;-4.40;9.90
47521;DHT22;32291;52.010;4.446;2024-01-11T01:32:26;-4.40;9.90
47521;DHT22;32291;52.010;4.446;2024-01-11T01:33:28;-4.40;8.00
47521;DHT22;32291;52.010;4.446;2024-01-11T01:34:35;-4.30;10.30
47521;DHT22;32291;52.010;4.446;2024-01-11T01:35:42;-4.40;10.20
47521;DHT22;32291;52.010;4.446;2024-01-11T01:36:44;-4.30;10.40
47521;DHT22;32291;52.010;4.446;2024-01-11T01:37:51;-4.30;9.00
47521;DHT22;32291;52.010;4.446;2024-01-11T01:38:58;-4.30;8.70
47521;DHT22;32291;52.010;4.446;2024-01-11T01:40:05;-4.30;8.30
47521;DHT22;32291;52.010;4.446;2024-01-11T01:41:13;-4.30;8.20
47521;DHT22;32291;52.010;4.446;2024-01-11T01:42:15;-4.40;7.40
47521;DHT22;32291;52.010;4.446;2024-01-11T01:43:22;-4.30;6.50
47521;DHT22;32291;52.010;4.446;2024-01-11T01:44:25;-4.40;4.20
47521;DHT22;32291;52.010;4.446;2024-01-11T01:45:32;-4.40;4.40
47521;DHT22;32291;52.010;4.446;2024-01-11T01:46:39;-4.40;6.00
47521;DHT22;32291;52.010;4.446;2024-01-11T01:47:46;-4.40;7.20
47521;DHT22;32291;52.010;4.446;2024-01-11T01:48:54;-4.40;8.30
47521;DHT22;32291;52.010;4.446;2024-01-11T01:49:58;-4.40;8.40
47521;DHT22;32291;52.010;4.446;2024-01-11T01:51:02;-4.50;8.40
47521;DHT22;32291;52.010;4.446;2024-01-11T01:52:10;-4.50;9.20
47521;DHT22;32291;52.010;4.446;2024-01-11T01:53:19;-4.50;11.10
47521;DHT22;32291;52.010;4.446;2024-01-11T01:54:28;-4.50;10.80
47521;DHT22;32291;52.010;4.446;2024-01-11T01:55:36;-4.50;12.10
47521;DHT22;32291;52.010;4.446;2024-01-11T01:56:43;-4.50;11.10
47521;DHT22;32291;52.010;4.446;2024-01-11T01:57:50;-4.50;10.80
47521;DHT22;32291;52.010;4.446;2024-01-11T01:59:01;-4.60;9.90
47521;DHT22;32291;52.010;4.446;2024-01-11T02:00:10;-4.60;11.20
47521;DHT22;32291;52.010;4.446;2024-01-11T02:01:19;-4.60;10.60
47521;DHT22;32291;52.010;4.446;2024-01-11T02:02:23;-4.60;10.70
47521;DHT22;32291;52.010;4.446;2024-01-11T02:03:28;-4.70;10.10
47521;DHT22;32291;52.010;4.446;2024-01-11T02:04:36;-4.70;11.40
47521;DHT22;32291;52.010;4.446;2024-01-11T02:05:46;-4.70;13.50
47521;DHT22;32291;52.010;4.446;2024-01-11T02:06:55;-4.70;13.40
47521;DHT22;32291;52.010;4.446;2024-01-11T02:08:06;-4.80;14.50
47521;DHT22;32291;52.010;4.446;2024-01-11T02:09:17;-4.80;16.50
47521;DHT22;32291;52.010;4.446;2024-01-11T02:10:24;-4.70;22.60
47521;DHT22;32291;52.010;4.446;2024-01-11T02:11:32;-4.70;22.30
47521;DHT22;32291;52.010;4.446;2024-01-11T02:12:41;-4.70;23.60
47521;DHT22;32291;52.010;4.446;2024-01-11T02:13:51;-4.70;23.80
47521;DHT22;32291;52.010;4.446;2024-01-11T02:14:54;-4.70;25.60
47521;DHT22;32291;52.010;4.446;2024-01-11T02:15:56;-4.70;27.20
47521;DHT22;32291;52.010;4.446;2024-01-11T02:17:04;-4.70;27.90
47521;DHT22;32291;52.010;4.446;2024-01-11T02:18:11;-4.70;29.00
47521;DHT22;32291;52.010;4.446;2024-01-11T02:19:19;-4.70;27.30
47521;DHT22;32291;52.010;4.446;2024-01-11T02:20:22;-4.60;29.10
47521;DHT22;32291;52.010;4.446;2024-01-11T02:21:25;-4.60;28.90
47521;DHT22;32291;52.010;4.446;2024-01-11T02:22:35;-4.60;30.00
47521;DHT22;32291;52.010;4.446;2024-01-11T02:24:03;-4.60;28.60
47521;DHT22;32291;52.010;4.446;2024-01-11T02:25:11;-4.70;28.40
47521;DHT22;32291;52.010;4.446;2024-01-11T02:26:18;-4.70;27.00
47521;DHT22;32291;52.010;4.446;2024-01-11T02:27:25;-4.70;27.70
47521;DHT22;32291;52.010;4.446;2024-01-11T02:28:32;-4.60;28.00
47521;DHT22;32291;52.010;4.446;2024-01-11T02:29:39;-4.70;27.80
47521;DHT22;32291;52.010;4.446;2024-01-11T02:30:41;-4.80;27.20
47521;DHT22;32291;52.010;4.446;2024-01-11T02:31:44;-4.80;27.20
47521;DHT22;32291;52.010;4.446;2024-01-11T02:32:53;-4.80;28.50
47521;DHT22;32291;52.010;4.446;2024-01-11T02:34:00;-4.80;28.40
47521;DHT22;32291;52.010;4.446;2024-01-11T02:35:02;-4.70;28.00
47521;DHT22;32291;52.010;4.446;2024-01-11T02:36:06;-4.80;29.40
47521;DHT22;32291;52.010;4.446;2024-01-11T02:37:08;-4.70;30.80
47521;DHT22;32291;52.010;4.446;2024-01-11T02:38:11;-4.80;32.00
47521;DHT22;32291;52.010;4.446;2024-01-11T02:39:16;-4.80;33.40
47521;DHT22;32291;52.010;4.446;2024-01-11T02:40:20;-4.80;33.40
47521;DHT22;32291;52.010;4.446;2024-01-11T02:41:24;-4.80;35.50
47521;DHT22;32291;52.010;4.446;2024-01-11T02:42:32;-4.80;36.20
47521;DHT22;32291;52.010;4.446;2024-01-11T02:43:34;-4.80;35.20
47521;DHT22;32291;52.010;4.446;2024-01-11T02:44:41;-4.80;36.80
47521;DHT22;32291;52.010;4.446;2024-01-11T02:45:43;-4.80;36.30
47521;DHT22;32291;52.010;4.446;2024-01-11T02:46:49;-4.80;36.30
47521;DHT22;32291;52.010;4.446;2024-01-11T02:47:57;-4.80;36.40
47521;DHT22;32291;52.010;4.446;2024-01-11T02:49:03;-4.90;35.30
47521;DHT22;32291;52.010;4.446;2024-01-11T02:50:07;-4.90;37.70
47521;DHT22;32291;52.010;4.446;2024-01-11T02:51:10;-4.80;40.60
47521;DHT22;32291;52.010;4.446;2024-01-11T02:52:17;-4.90;41.60
47521;DHT22;32291;52.010;4.446;2024-01-11T02:53:24;-4.80;39.50
47521;DHT22;32291;52.010;4.446;2024-01-11T02:54:31;-4.80;39.50
47521;DHT22;32291;52.010;4.446;2024-01-11T02:55:33;-4.80;42.00
47521;DHT22;32291;52.010;4.446;2024-01-11T02:56:35;-4.80;42.20
47521;DHT22;32291;52.010;4.446;2024-01-11T02:57:42;-4.80;43.20
47521;DHT22;32291;52.010;4.446;2024-01-11T02:58:49;-4.80;41.00
47521;DHT22;32291;52.010;4.446;2024-01-11T02:59:51;-4.90;41.90
47521;DHT22;32291;52.010;4.446;2024-01-11T03:00:58;-4.90;39.70
47521;DHT22;32291;52.010;4.446;2024-01-11T03:02:01;-4.90;39.70
47521;DHT22;32291;52.010;4.446;2024-01-11T03:03:08;-4.90;42.40
47521;DHT22;32291;52.010;4.446;2024-01-11T03:04:15;-5.00;42.90
47521;DHT22;32291;52.010;4.446;2024-01-11T03:05:23;-5.00;43.40
47521;DHT22;32291;52.010;4.446;2024-01-11T03:06:30;-5.00;43.40
47521;DHT22;32291;52.010;4.446;2024-01-11T03:07:32;-5.00;43.50
47521;DHT22;32291;52.010;4.446;2024-01-11T03:08:39;-4.90;42.20
47521;DHT22;32291;52.010;4.446;2024-01-11T03:09:41;-5.00;42.10
47521;DHT22;32291;52.010;4.446;2024-01-11T03:10:48;-5.10;41.10
47521;DHT22;32291;52.010;4.446;2024-01-11T03:11:55;-5.20;40.40
47521;DHT22;32291;52.010;4.446;2024-01-11T03:13:02;-5.20;41.20
47521;DHT22;32291;52.010;4.446;2024-01-11T03:14:05;-5.20;40.40
47521;DHT22;32291;52.010;4.446;2024-01-11T03:15:07;-5.20;41.30
47521;DHT22;32291;52.010;4.446;2024-01-11T03:16:14;-5.30;43.40
47521;DHT22;32291;52.010;4.446;2024-01-11T03:17:21;-5.30;45.60
47521;DHT22;32291;52.010;4.446;2024-01-11T03:18:23;-5.30;45.60
47521;DHT22;32291;52.010;4.446;2024-01-11T03:19:30;-5.30;44.70
47521;DHT22;32291;52.010;4.446;2024-01-11T03:20:32;-5.30;44.90
47521;DHT22;32291;52.010;4.446;2024-01-11T03:21:48;-5.40;44.10
47521;DHT22;32291;52.010;4.446;2024-01-11T03:22:55;-5.40;47.90
47521;DHT22;32291;52.010;4.446;2024-01-11T03:23:57;-5.40;48.20
47521;DHT22;32291;52.010;4.446;2024-01-11T03:25:04;-5.50;47.40
47521;DHT22;32291;52.010;4.446;2024-01-11T03:26:16;-5.50;47.60
47521;DHT22;32291;52.010;4.446;2024-01-11T03:27:24;-5.50;47.30
47521;DHT22;32291;52.010;4.446;2024-01-11T03:28:31;-5.60;46.80
47521;DHT22;32291;52.010;4.446;2024-01-11T03:29:33;-5.50;47.50
47521;DHT22;32291;52.010;4.446;2024-01-11T03:30:40;-5.60;47.50
47521;DHT22;32291;52.010;4.446;2024-01-11T03:31:47;-5.60;47.20
47521;DHT22;32291;52.010;4.446;2024-01-11T03:32:54;-5.70;47.20
47521;DHT22;32291;52.010;4.446;2024-01-11T03:33:56;-5.70;47.70
47521;DHT22;32291;52.010;4.446;2024-01-11T03:34:58;-5.70;48.00
47521;DHT22;32291;52.010;4.446;2024-01-11T03:36:11;-5.80;49.90
47521;DHT22;32291;52.010;4.446;2024-01-11T03:37:19;-5.80;51.00
47521;DHT22;32291;52.010;4.446;2024-01-11T03:38:25;-5.80;51.60
47521;DHT22;32291;52.010;4.446;2024-01-11T03:39:34;-5.80;54.80
47521;DHT22;32291;52.010;4.446;2024-01-11T03:40:36;-5.80;55.90
47521;DHT22;32291;52.010;4.446;2024-01-11T03:41:44;-5.80;58.50
47521;DHT22;32291;52.010;4.446;2024-01-11T03:42:51;-5.80;59.30
47521;DHT22;32291;52.010;4.446;2024-01-11T03:43:54;-5.90;59.80
47521;DHT22;32291;52.010;4.446;2024-01-11T03:45:01;-5.80;61.50
47521;DHT22;32291;52.010;4.446;2024-01-11T03:46:03;-5.80;65.60
47521;DHT22;32291;52.010;4.446;2024-01-11T03:47:06;-5.80;71.10
47521;DHT22;32291;52.010;4.446;2024-01-11T03:48:13;-5.80;72.50
47521;DHT22;32291;52.010;4.446;2024-01-11T03:49:15;-5.70;78.60
47521;DHT22;32291;52.010;4.446;2024-01-11T03:50:22;-5.70;79.60
47521;DHT22;32291;52.010;4.446;2024-01-11T03:51:24;-5.50;80.90
47521;DHT22;32291;52.010;4.446;2024-01-11T03:52:31;-5.50;85.10
47521;DHT22;32291;52.010;4.446;2024-01-11T03:53:37;-5.50;84.80
47521;DHT22;32291;52.010;4.446;2024-01-11T03:54:44;-5.50;88.90
47521;DHT22;32291;52.010;4.446;2024-01-11T03:55:51;-5.50;87.60
47521;DHT22;32291;52.010;4.446;2024-01-11T03:56:58;-5.50;84.50
47521;DHT22;32291;52.010;4.446;2024-01-11T03:58:05;-5.50;85.00
47521;DHT22;32291;52.010;4.446;2024-01-11T03:59:07;-5.50;84.10
47521;DHT22;32291;52.010;4.446;2024-01-11T04:00:09;-5.50;84.60
47521;DHT22;32291;52.010;4.446;2024-01-11T04:01:12;-5.40;88.10
47521;DHT22;32291;52.010;4.446;2024-01-11T04:02:19;-5.40;87.30
47521;DHT22;32291;52.010;4.446;2024-01-11T04:03:26;-5.40;83.40
47521;DHT22;32291;52.010;4.446;2024-01-11T04:04:33;-5.40;81.90
47521;DHT22;32291;52.010;4.446;2024-01-11T04:05:40;-5.50;81.90
47521;DHT22;32291;52.010;4.446;2024-01-11T04:06:42;-5.50;80.20
47521;DHT22;32291;52.010;4.446;2024-01-11T04:07:49;-5.50;79.50
47521;DHT22;32291;52.010;4.446;2024-01-11T04:08:56;-5.60;78.80
47521;DHT22;32291;52.010;4.446;2024-01-11T04:09:58;-5.50;81.70
47521;DHT22;32291;52.010;4.446;2024-01-11T04:11:06;-5.50;82.10
47521;DHT22;32291;52.010;4.446;2024-01-11T04:12:13;-5.60;82.60
47521;DHT22;32291;52.010;4.446;2024-01-11T04:13:20;-5.60;79.40
47521;DHT22;32291;52.010;4.446;2024-01-11T04:14:22;-5.70;77.60
47521;DHT22;32291;52.010;4.446;2024-01-11T04:15:29;-5.60;76.50
47521;DHT22;32291;52.010;4.446;2024-01-11T04:16:31;-5.60;77.60
47521;DHT22;32291;52.010;4.446;2024-01-11T04:17:33;-5.70;79.10
47521;DHT22;32291;52.010;4.446;2024-01-11T04:18:40;-5.70;82.40
47521;DHT22;32291;52.010;4.446;2024-01-11T04:19:46;-5.70;86.30
47521;DHT22;32291;52.010;4.446;2024-01-11T04:20:53;-5.70;90.60
47521;DHT22;32291;52.010;4.446;2024-01-11T04:22:00;-5.70;91.40
47521;DHT22;32291;52.010;4.446;2024-01-11T04:23:07;-5.70;92.40
47521;DHT22;32291;52.010;4.446;2024-01-11T04:24:14;-5.70;92.40
47521;DHT22;32291;52.010;4.446;2024-01-11T04:25:21;-5.70;91.90
47521;DHT22;32291;52.010;4.446;2024-01-11T04:26:28;-5.70;91.90
47521;DHT22;32291;52.010;4.446;2024-01-11T04:27:35;-5.70;90.80
47521;DHT22;32291;52.010;4.446;2024-01-11T04:28:43;-5.80;91.30
47521;DHT22;32291;52.010;4.446;2024-01-11T04:29:51;-5.80;91.50
47521;DHT22;32291;52.010;4.446;2024-01-11T04:30:58;-5.80;90.60
47521;DHT22;32291;52.010;4.446;2024-01-11T04:32:05;-5.80;91.30
47521;DHT22;32291;52.010;4.446;2024-01-11T04:33:12;-5.90;91.10
47521;DHT22;32291;52.010;4.446;2024-01-11T04:34:19;-5.90;91.00
47521;DHT22;32291;52.010;4.446;2024-01-11T04:35:26;-5.90;91.20
47521;DHT22;32291;52.010;4.446;2024-01-11T04:36:32;-5.90;91.50
47521;DHT22;32291;52.010;4.446;2024-01-11T04:37:35;-5.90;91.90
47521;DHT22;32291;52.010;4.446;2024-01-11T04:38:43;-5.90;94.60
47521;DHT22;32291;52.010;4.446;2024-01-11T04:39:53;-5.90;95.20
47521;DHT22;32291;52.010;4.446;2024-01-11T04:41:00;-5.90;96.10
47521;DHT22;32291;52.010;4.446;2024-01-11T04:42:07;-5.90;96.40
47521;DHT22;32291;52.010;4.446;2024-01-11T04:43:14;-5.90;97.50
47521;DHT22;32291;52.010;4.446;2024-01-11T04:44:21;-5.90;99.10
47521;DHT22;32291;52.010;4.446;2024-01-11T04:45:23;-5.90;99.90
47521;DHT22;32291;52.010;4.446;2024-01-11T04:46:30;-5.80;99.90
47521;DHT22;32291;52.010;4.446;2024-01-11T04:47:33;-5.90;99.90
47521;DHT22;32291;52.010;4.446;2024-01-11T04:48:41;-5.80;99.90
47521;DHT22;32291;52.010;4.446;2024-01-11T04:49:48;-5.90;99.90
47521;DHT22;32291;52.010;4.446;2024-01-11T04:50:52;-5.80;99.90
47521;DHT22;32291;52.010;4.446;2024-01-11T04:51:59;-5.80;99.90
47521;DHT22;32291;52.010;4.446;2024-01-11T04:53:06;-5.80;99.90
47521;DHT22;32291;52.010;4.446;2024-01-11T04:54:16;-5.80;99.90
47521;DHT22;32291;52.010;4.446;2024-01-11T04:55:18;-5.80;99.90
47521;DHT22;32291;52.010;4.446;2024-01-11T04:56:20;-5.80;99.90
47521;DHT22;32291;52.010;4.446;2024-01-11T04:57:23;-5.80;99.90
47521;DHT22;32291;52.010;4.446;2024-01-11T04:58:30;-5.80;99.90
47521;DHT22;32291;52.010;4.446;2024-01-11T04:59:37;-5.90;99.90
47521;DHT22;32291;52.010;4.446;2024-01-11T05:00:44;-5.90;99.90
47521;DHT22;32291;52.010;4.446;2024-01-11T05:01:50;-5.90;99.90
47521;DHT22;32291;52.010;4.446;2024-01-11T05:02:53;-5.90;99.90
47521;DHT22;32291;52.010;4.446;2024-01-11T05:04:00;-6.00;99.90
47521;DHT22;32291;52.010;4.446;2024-01-11T05:05:07;-6.00;99.90
47521;DHT22;32291;52.010;4.446;2024-01-11T05:06:15;-6.00;99.90
47521;DHT22;32291;52.010;4.446;2024-01-11T05:07:19;-6.00;99.90
47521;DHT22;32291;52.010;4.446;2024-01-11T05:08:26;-6.00;99.90
47521;DHT22;32291;52.010;4.446;2024-01-11T05:09:34;-6.00;99.90
47521;DHT22;32291;52.010;4.446;2024-01-11T05:10:36;-6.00;99.90
47521;DHT22;32291;52.010;4.446;2024-01-11T05:11:38;-6.00;99.90
47521;DHT22;32291;52.010;4.446;2024-01-11T05:12:45;-6.00;99.90
47521;DHT22;32291;52.010;4.446;2024-01-11T05:13:52;-6.10;99.90
47521;DHT22;32291;52.010;4.446;2024-01-11T05:14:54;-6.10;99.90
47521;DHT22;32291;52.010;4.446;2024-01-11T05:16:01;-6.10;99.90
47521;DHT22;32291;52.010;4.446;2024-01-11T05:17:08;-6.10;99.90
47521;DHT22;32291;52.010;4.446;2024-01-11T05:18:15;-6.10;99.90
47521;DHT22;32291;52.010;4.446;2024-01-11T05:19:22;-6.10;99.90
47521;DHT22;32291;52.010;4.446;2024-01-11T05:20:29;-6.10;99.90
47521;DHT22;32291;52.010;4.446;2024-01-11T05:21:36;-6.20;99.90
47521;DHT22;32291;52.010;4.446;2024-01-11T05:22:43;-6.20;99.90
47521;DHT22;32291;52.010;4.446;2024-01-11T05:23:50;-6.20;99.90
47521;DHT22;32291;52.010;4.446;2024-01-11T05:24:57;-6.20;99.90
47521;DHT22;32291;52.010;4.446;2024-01-11T05:26:04;-6.30;99.90
47521;DHT22;32291;52.010;4.446;2024-01-11T05:27:07;-6.30;99.90
47521;DHT22;32291;52.010;4.446;2024-01-11T05:28:14;-6.30;99.90
47521;DHT22;32291;52.010;4.446;2024-01-11T05:29:21;-6.40;99.90
47521;DHT22;32291;52.010;4.446;2024-01-11T05:30:28;-6.40;99.90
47521;DHT22;32291;52.010;4.446;2024-01-11T05:31:30;-6.40;99.90
47521;DHT22;32291;52.010;4.446;2024-01-11T05:32:32;-6.40;99.90
47521;DHT22;32291;52.010;4.446;2024-01-11T05:33:39;-6.40;99.90
47521;DHT22;32291;52.010;4.446;2024-01-11T05:34:46;-6.40;99.90
47521;DHT22;32291;52.010;4.446;2024-01-11T05:35:53;-6.50;99.90
47521;DHT22;32291;52.010;4.446;2024-01-11T05:37:00;-6.40;99.90
47521;DHT22;32291;52.010;4.446;2024-01-11T05:38:06;-6.50;99.90
47521;DHT22;32291;52.010;4.446;2024-01-11T05:39:13;-6.40;99.90
47521;DHT22;32291;52.010;4.446;2024-01-11T05:40:16;-6.50;99.90
47521;DHT22;32291;52.010;4.446;2024-01-11T05:41:18;-6.50;99.90
47521;DHT22;32291;52.010;4.446;2024-01-11T05:42:20;-6.50;99.90
47521;DHT22;32291;52.010;4.446;2024-01-11T05:43:27;-6.50;99.90
47521;DHT22;32291;52.010;4.446;2024-01-11T05:44:29;-6.50;99.90
47521;DHT22;32291;52.010;4.446;2024-01-11T05:45:36;-6.50;99.90
47521;DHT22;32291;52.010;4.446;2024-01-11T05:46:43;-6.50;99.90
47521;DHT22;32291;52.010;4.446;2024-01-11T05:47:50;-6.60;99.90
47521;DHT22;32291;52.010;4.446;2024-01-11T05:48:55;-6.50;99.90
47521;DHT22;32291;52.010;4.446;2024-01-11T05:50:02;-6.60;99.90
47521;DHT22;32291;52.010;4.446;2024-01-11T05:51:04;-6.60;99.90
47521;DHT22;32291;52.010;4.446;2024-01-11T05:52:11;-6.60;99.90
47521;DHT22;32291;52.010;4.446;2024-01-11T05:53:18;-6.60;99.90
47521;DHT22;32291;52.010;4.446;2024-01-11T05:54:22;-6.60;99.90
47521;DHT22;32291;52.010;4.446;2024-01-11T05:55:29;-6.60;99.90
47521;DHT22;32291;52.010;4.446;2024-01-11T05:56:31;-6.60;99.90
47521;DHT22;32291;52.010;4.446;2024-01-11T05:57:38;-6.60;99.90
47521;DHT22;32291;52.010;4.446;2024-01-11T05:58:45;-6.60;99.90
47521;DHT22;32291;52.010;4.446;2024-01-11T05:59:51;-6.60;99.90
47521;DHT22;32291;52.010;4.446;2024-01-11T06:00:56;-6.70;99.90
47521;DHT22;32291;52.010;4.446;2024-01-11T06:02:03;-6.70;99.90
47521;DHT22;32291;52.010;4.446;2024-01-11T06:03:12;-6.70;99.90
47521;DHT22;32291;52.010;4.446;2024-01-11T06:04:14;-6.70;99.90
47521;DHT22;32291;52.010;4.446;2024-01-11T06:05:16;-6.70;99.90
47521;DHT22;32291;52.010;4.446;2024-01-11T06:06:23;-6.70;99.90
47521;DHT22;32291;52.010;4.446;2024-01-11T06:07:30;-6.70;99.90
47521;DHT22;32291;52.010;4.446;2024-01-11T06:08:32;-6.70;99.90
47521;DHT22;32291;52.010;4.446;2024-01-11T06:09:39;-6.70;99.90
47521;DHT22;32291;52.010;4.446;2024-01-11T06:10:41;-6.70;99.90
47521;DHT22;32291;52.010;4.446;2024-01-11T06:11:48;-6.70;99.90
47521;DHT22;32291;52.010;4.446;2024-01-11T06:12:54;-6.70;99.90
47521;DHT22;32291;52.010;4.446;2024-01-11T06:13:58;-6.60;99.90
47521;DHT22;32291;52.010;4.446;2024-01-11T06:15:05;-6.60;99.90
47521;DHT22;32291;52.010;4.446;2024-01-11T06:16:08;-6.60;99.90
47521;DHT22;32291;52.010;4.446;2024-01-11T06:17:15;-6.60;99.90
47521;DHT22;32291;52.010;4.446;2024-01-11T06:18:22;-6.60;99.90
47521;DHT22;32291;52.010;4.446;2024-01-11T06:19:32;-6.60;99.90
47521;DHT22;32291;52.010;4.446;2024-01-11T06:20:39;-6.60;99.90
47521;DHT22;32291;52.010;4.446;2024-01-11T06:21:45;-6.70;99.90
47521;DHT22;32291;52.010;4.446;2024-01-11T06:22:53;-6.70;99.90
47521;DHT22;32291;52.010;4.446;2024-01-11T06:23:55;-6.70;99.90
47521;DHT22;32291;52.010;4.446;2024-01-11T06:25:03;-6.70;99.90
47521;DHT22;32291;52.010;4.446;2024-01-11T06:26:10;-6.70;99.90
47521;DHT22;32291;52.010;4.446;2024-01-11T06:27:17;-6.70;99.90
47521;DHT22;32291;52.010;4.446;2024-01-11T06:28:19;-6.80;99.90
47521;DHT22;32291;52.010;4.446;2024-01-11T06:29:26;-6.80;99.90
47521;DHT22;32291;52.010;4.446;2024-01-11T06:30:28;-6.70;99.90
47521;DHT22;32291;52.010;4.446;2024-01-11T06:31:35;-6.80;99.90
47521;DHT22;32291;52.010;4.446;2024-01-11T06:32:42;-6.80;99.90
47521;DHT22;32291;52.010;4.446;2024-01-11T06:33:49;-6.80;99.90
47521;DHT22;32291;52.010;4.446;2024-01-11T06:34:51;-6.70;99.90
47521;DHT22;32291;52.010;4.446;2024-01-11T06:35:59;-6.70;99.90
47521;DHT22;32291;52.010;4.446;2024-01-11T06:37:02;-6.70;99.90
47521;DHT22;32291;52.010;4.446;2024-01-11T06:38:09;-6.70;99.90
47521;DHT22;32291;52.010;4.446;2024-01-11T06:39:16;-6.70;99.90
47521;DHT22;32291;52.010;4.446;2024-01-11T06:40:23;-6.70;99.90
47521;DHT22;32291;52.010;4.446;2024-01-11T06:41:30;-6.70;99.90
47521;DHT22;32291;52.010;4.446;2024-01-11T06:42:37;-6.70;99.90
47521;DHT22;32291;52.010;4.446;2024-01-11T06:43:39;-6.60;99.90
47521;DHT22;32291;52.010;4.446;2024-01-11T06:44:46;-6.50;99.90
47521;DHT22;32291;52.010;4.446;2024-01-11T06:45:49;-6.60;99.90
47521;DHT22;32291;52.010;4.446;2024-01-11T06:46:56;-6.50;99.90
47521;DHT22;32291;52.010;4.446;2024-01-11T06:48:03;-6.50;99.90
47521;DHT22;32291;52.010;4.446;2024-01-11T06:49:06;-6.50;99.90
47521;DHT22;32291;52.010;4.446;2024-01-11T06:50:08;-6.40;99.90
47521;DHT22;32291;52.010;4.446;2024-01-11T06:51:16;-6.40;99.90
47521;DHT22;32291;52.010;4.446;2024-01-11T06:52:26;-6.40;99.90
47521;DHT22;32291;52.010;4.446;2024-01-11T06:53:33;-6.40;99.90
47521;DHT22;32291;52.010;4.446;2024-01-11T06:54:39;-6.40;99.90
47521;DHT22;32291;52.010;4.446;2024-01-11T06:55:41;-6.40;99.90
47521;DHT22;32291;52.010;4.446;2024-01-11T06:56:50;-6.40;99.90
47521;DHT22;32291;52.010;4.446;2024-01-11T06:57:57;-6.40;99.90